Time;durP1;ratioP1;P1;durP2;ratioP2;P2;SDS_P1;SDS_P2;PMS_P1;PMS_P2;Temp;Humidity;BMP_temperature;BMP_pressure;BME280_temperature;BME280_humidity;BME280_pressure;Samples;Min_cycle;Max_cycle;Signal;HPM_P1;HPM_P2
2023/09/17 00:01:09;;;;;;;4.15;3.40;;;19.30;99.90;;;19.21;100.00;97064.13;5012483;28;20546;-38
2023/09/17 00:03:35;;;;;;;4.05;3.28;;;19.30;99.90;;;19.12;100.00;97059.50;5001103;28;20021;-38
2023/09/17 00:06:00;;;;;;;4.20;3.25;;;19.20;99.90;;;19.06;100.00;97066.16;5010415;28;20119;-40
2023/09/17 00:08:26;;;;;;;4.38;3.30;;;19.10;99.90;;;19.05;100.00;97067.13;5012036;28;20037;-39
2023/09/17 00:10:52;;;;;;;4.70;3.40;;;19.10;99.90;;;19.01;100.00;97068.34;5014750;28;20115;-38
2023/09/17 00:13:18;;;;;;;5.40;3.20;;;19.00;99.90;;;18.99;100.00;97070.28;5015095;28;20076;-38
2023/09/17 00:15:45;;;;;;;4.47;3.40;;;19.00;99.90;;;18.71;100.00;97040.25;5011175;28;20960;-40
2023/09/17 00:18:11;;;;;;;4.43;3.38;;;19.00;99.90;;;18.93;100.00;97081.41;5012498;28;20041;-37
2023/09/17 00:20:37;;;;;;;5.03;3.78;;;19.00;99.90;;;18.86;100.00;97075.69;5005719;28;20125;-38
2023/09/17 00:23:03;;;;;;;4.18;3.30;;;18.90;99.90;;;18.78;100.00;97075.38;5005752;28;20033;-38
2023/09/17 00:25:29;;;;;;;4.28;3.53;;;18.80;99.90;;;18.72;100.00;97068.69;5014077;28;20033;-38
2023/09/17 00:27:55;;;;;;;3.97;3.38;;;18.70;99.90;;;18.66;100.00;97072.69;5015155;28;20409;-38
2023/09/17 00:30:21;;;;;;;6.07;4.30;;;18.70;99.90;;;18.41;100.00;97038.94;5011079;28;20422;-40
2023/09/17 00:32:47;;;;;;;4.90;3.78;;;18.70;99.90;;;18.59;100.00;97062.56;5012009;28;20034;-38
2023/09/17 00:35:13;;;;;;;3.90;3.50;;;18.60;99.90;;;18.60;100.00;97066.94;5015389;28;20065;-37
2023/09/17 00:37:40;;;;;;;5.15;4.07;;;18.70;99.90;;;18.51;100.00;97047.13;5014193;28;20139;-38
2023/09/17 00:40:09;;;;;;;5.05;3.78;;;18.60;99.90;;;18.57;100.00;97062.66;5014508;28;20037;-38
2023/09/17 00:42:36;;;;;;;5.50;3.67;;;18.60;99.90;;;18.54;100.00;97056.69;5008005;28;20027;-38
2023/09/17 00:45:03;;;;;;;6.03;3.50;;;18.60;99.90;;;18.52;100.00;97064.84;5011501;28;20485;-38
2023/09/17 00:47:30;;;;;;;4.32;3.67;;;18.50;99.90;;;18.48;100.00;97066.91;5013449;28;20116;-38
2023/09/17 00:49:56;;;;;;;5.70;4.03;;;18.50;99.90;;;18.47;100.00;97065.19;5008188;28;20039;-38
2023/09/17 00:52:22;;;;;;;6.15;3.78;;;18.50;99.90;;;18.49;100.00;97060.56;5005069;28;20029;-38
2023/09/17 00:54:51;;;;;;;4.30;3.55;;;18.50;99.90;;;18.47;100.00;97053.66;5009085;28;20041;-39
2023/09/17 00:57:17;;;;;;;4.75;3.67;;;18.50;99.90;;;18.45;100.00;97056.44;5014780;28;20124;-38
2023/09/17 00:59:44;;;;;;;4.20;3.67;;;18.50;99.90;;;18.39;100.00;97046.19;5008419;28;20519;-41
2023/09/17 01:02:21;;;;;;;6.82;4.07;;;18.50;99.90;;;18.41;100.00;97054.97;5010999;28;20044;-38
2023/09/17 01:04:50;;;;;;;6.80;4.25;;;18.50;99.90;;;18.37;100.00;97052.63;5010397;28;20091;-39
2023/09/17 01:07:17;;;;;;;4.72;4.00;;;18.40;99.90;;;18.31;100.00;97062.78;5011306;28;20489;-38
2023/09/17 01:09:43;;;;;;;4.75;3.80;;;18.40;99.90;;;18.23;100.00;97048.28;5010928;28;20040;-39
2023/09/17 01:12:09;;;;;;;4.82;3.72;;;18.30;99.90;;;18.30;100.00;97057.56;5013672;28;20128;-38
2023/09/17 01:14:36;;;;;;;6.95;4.53;;;18.30;99.90;;;18.27;100.00;97074.66;5010176;28;20046;-37
2023/09/17 01:17:03;;;;;;;5.35;3.78;;;18.30;99.90;;;18.24;100.00;97079.38;5012540;28;20537;-38
2023/09/17 01:19:29;;;;;;;9.00;3.90;;;18.30;99.90;;;18.22;100.00;97065.28;5011292;28;20030;-38
2023/09/17 01:22:12;;;;;;;6.20;4.00;;;18.30;99.90;;;18.25;100.00;97075.72;5013087;28;20029;-37
2023/09/17 01:25:06;;;;;;;4.63;3.90;;;18.20;99.90;;;18.23;100.00;97077.66;5015408;28;20036;-38
2023/09/17 01:27:36;;;;;;;5.25;3.33;;;18.30;99.90;;;18.21;100.00;97074.25;5015413;28;20061;-38
2023/09/17 01:30:04;;;;;;;3.95;3.55;;;18.30;99.90;;;18.18;100.00;97075.34;5014778;28;20025;-37
2023/09/17 01:32:30;;;;;;;6.45;3.92;;;18.30;99.90;;;18.18;100.00;97077.13;5014840;28;20036;-38
2023/09/17 01:34:56;;;;;;;7.72;3.47;;;18.20;99.90;;;18.15;100.00;97075.56;5015456;28;20276;-37
2023/09/17 01:37:36;;;;;;;4.57;3.50;;;18.20;99.90;;;18.14;100.00;97076.50;5013833;28;20030;-38
2023/09/17 01:40:12;;;;;;;4.07;3.45;;;18.20;99.90;;;18.15;100.00;97080.06;5013881;28;20029;-38
2023/09/17 01:42:44;;;;;;;4.32;3.72;;;18.20;99.90;;;18.14;100.00;97079.19;5010964;28;20508;-37
2023/09/17 01:45:14;;;;;;;4.45;3.65;;;18.20;99.90;;;18.10;100.00;97070.53;5010877;28;20026;-38
2023/09/17 01:47:42;;;;;;;4.22;3.38;;;18.30;99.90;;;18.23;100.00;97088.34;5011311;28;20044;-40
2023/09/17 01:50:09;;;;;;;4.95;3.38;;;18.30;99.90;;;18.30;100.00;97093.13;5010182;28;20029;-39
2023/09/17 01:52:36;;;;;;;4.25;3.58;;;18.40;99.90;;;18.38;100.00;97097.06;5011669;28;20040;-40
2023/09/17 01:55:03;;;;;;;4.72;3.90;;;18.40;99.90;;;18.41;100.00;97089.69;5004370;28;20083;-38
2023/09/17 01:57:29;;;;;;;4.22;3.72;;;18.50;99.90;;;18.43;100.00;97101.09;5011330;28;20040;-38
2023/09/17 01:59:55;;;;;;;4.50;3.75;;;18.50;99.90;;;18.44;100.00;97101.94;5012463;28;20067;-37
2023/09/17 02:02:21;;;;;;;4.47;3.92;;;18.50;99.90;;;18.43;100.00;97095.75;5014235;28;20136;-38
2023/09/17 02:04:47;;;;;;;5.60;3.50;;;18.50;99.90;;;18.43;100.00;97101.09;5008343;28;20037;-38
2023/09/17 02:07:16;;;;;;;4.07;3.40;;;18.50;99.90;;;18.40;100.00;97084.44;5013503;28;20022;-37
2023/09/17 02:09:42;;;;;;;4.35;3.40;;;18.50;99.90;;;18.46;100.00;97090.16;5011162;28;20036;-38
2023/09/17 02:12:08;;;;;;;4.75;3.55;;;18.50;99.90;;;18.44;100.00;97080.56;5014796;28;20037;-37
2023/09/17 02:14:34;;;;;;;4.40;3.45;;;18.50;99.90;;;18.46;100.00;97083.97;5012796;28;20052;-38
2023/09/17 02:16:59;;;;;;;4.47;3.40;;;18.50;99.90;;;18.38;100.00;97067.69;5009263;28;20611;-40
2023/09/17 02:19:25;;;;;;;5.22;3.50;;;18.50;99.90;;;18.40;100.00;97081.78;5007339;28;20045;-38
2023/09/17 02:21:54;;;;;;;3.78;2.90;;;18.50;99.90;;;18.35;100.00;97091.94;5012728;28;20393;-38
2023/09/17 02:24:20;;;;;;;4.32;3.08;;;18.40;99.90;;;18.30;100.00;97092.25;5001753;28;20049;-38
2023/09/17 02:26:46;;;;;;;3.45;3.15;;;18.30;99.90;;;18.24;100.00;97084.72;5008539;28;20392;-38
2023/09/17 02:29:13;;;;;;;4.10;3.47;;;18.30;99.90;;;18.19;100.00;97084.19;5013708;28;20040;-40
2023/09/17 02:31:38;;;;;;;3.30;3.00;;;18.20;99.90;;;18.20;100.00;97083.25;5010506;28;20025;-38
2023/09/17 02:34:04;;;;;;;5.55;3.50;;;18.30;99.90;;;18.18;100.00;97088.69;5011806;28;20357;-39
2023/09/17 02:36:30;;;;;;;4.35;3.28;;;18.20;99.90;;;18.17;100.00;97080.78;5014170;28;20488;-38
2023/09/17 02:38:56;;;;;;;4.47;3.50;;;18.20;99.90;;;18.01;100.00;97062.38;5007684;28;20408;-39
2023/09/17 02:41:22;;;;;;;3.83;3.35;;;18.20;99.90;;;18.07;100.00;97073.44;5013236;28;20022;-38
2023/09/17 02:43:48;;;;;;;4.68;4.07;;;18.20;99.90;;;17.99;100.00;97081.16;5007321;28;20041;-39
2023/09/17 02:46:14;;;;;;;4.38;3.60;;;18.10;99.90;;;17.97;100.00;97088.41;5015063;28;20535;-37
2023/09/17 02:48:40;;;;;;;4.20;3.67;;;18.00;99.90;;;17.86;100.00;97069.66;5014000;28;20072;-38
2023/09/17 02:51:05;;;;;;;4.05;3.53;;;18.00;99.90;;;17.85;100.00;97079.47;5007389;28;20037;-38
2023/09/17 02:53:31;;;;;;;4.43;3.70;;;17.90;99.90;;;17.77;100.00;97080.97;5004105;28;20497;-38
2023/09/17 02:55:58;;;;;;;4.47;3.72;;;17.90;99.90;;;17.68;100.00;97079.81;5013488;28;20037;-37
2023/09/17 02:58:24;;;;;;;4.75;3.75;;;17.80;99.90;;;17.71;100.00;97091.09;5013941;28;20026;-38
2023/09/17 03:00:50;;;;;;;4.80;3.97;;;17.80;99.90;;;17.68;100.00;97091.31;5013329;28;20048;-38
2023/09/17 03:03:16;;;;;;;4.90;3.83;;;17.70;99.90;;;17.68;100.00;97087.78;5012744;28;20389;-39
2023/09/17 03:05:46;;;;;;;5.72;4.50;;;17.70;99.90;;;17.69;100.00;97097.50;5011945;28;20590;-38
2023/09/17 03:08:13;;;;;;;4.80;4.28;;;17.80;99.90;;;17.69;100.00;97098.38;5017411;28;20428;-37
2023/09/17 03:10:44;;;;;;;5.45;4.63;;;17.80;99.90;;;17.70;100.00;97104.53;5009714;28;20113;-38
2023/09/17 03:13:14;;;;;;;7.13;3.92;;;17.70;99.90;;;17.68;100.00;97099.31;5012806;28;20163;-38
2023/09/17 03:15:40;;;;;;;5.05;4.43;;;17.80;99.90;;;17.66;100.00;97100.41;5013010;28;20037;-38
2023/09/17 03:18:06;;;;;;;4.80;4.25;;;17.70;99.90;;;17.62;100.00;97096.22;5015227;28;20025;-39
2023/09/17 03:20:33;;;;;;;6.55;4.68;;;17.70;99.90;;;17.57;100.00;97101.88;5011245;28;20816;-37
2023/09/17 03:23:04;;;;;;;5.07;4.20;;;17.60;99.90;;;17.49;100.00;97098.88;5013566;28;20076;-37
2023/09/17 03:25:31;;;;;;;7.13;4.55;;;17.60;99.90;;;17.46;100.00;97101.75;5010885;28;20037;-38
2023/09/17 03:27:59;;;;;;;4.93;4.40;;;17.50;99.90;;;17.46;100.00;97099.09;5012982;28;20072;-38
2023/09/17 03:30:25;;;;;;;5.53;4.03;;;17.50;99.90;;;17.46;100.00;97099.97;5011632;28;20140;-38
2023/09/17 03:32:51;;;;;;;5.50;4.40;;;17.50;99.90;;;17.47;100.00;97095.47;5012286;28;20076;-38
2023/09/17 03:35:17;;;;;;;5.85;4.35;;;17.50;99.90;;;17.44;100.00;97096.53;5014055;28;20753;-38
2023/09/17 03:37:43;;;;;;;5.15;4.20;;;17.50;99.90;;;17.41;100.00;97107.44;5014831;28;20037;-38
2023/09/17 03:40:12;;;;;;;5.20;4.40;;;17.50;99.90;;;17.39;100.00;97108.47;5012657;28;20112;-37
2023/09/17 03:42:39;;;;;;;5.15;4.10;;;17.50;99.90;;;17.39;100.00;97113.81;5012316;28;20152;-39
2023/09/17 03:45:09;;;;;;;5.10;4.45;;;17.40;99.90;;;17.36;100.00;97102.41;5013319;28;20060;-37
2023/09/17 03:47:36;;;;;;;5.13;4.05;;;17.40;99.90;;;17.37;100.00;97108.56;5014502;28;20037;-37
2023/09/17 03:50:06;;;;;;;5.78;4.50;;;17.40;99.90;;;17.34;100.00;97106.16;5011086;28;20552;-37
2023/09/17 03:52:42;;;;;;;6.13;4.30;;;17.40;99.90;;;17.24;100.00;97089.91;5011355;28;20664;-37
2023/09/17 03:55:08;;;;;;;4.95;4.00;;;17.40;99.90;;;17.27;100.00;97104.88;5015129;28;20056;-37
2023/09/17 03:57:35;;;;;;;6.93;4.45;;;17.30;99.90;;;17.25;100.00;97096.97;5009271;28;20603;-37
2023/09/17 04:00:10;;;;;;;6.13;4.45;;;17.30;99.90;;;17.25;100.00;97093.47;5012147;28;20491;-37
2023/09/17 04:02:36;;;;;;;5.07;3.78;;;17.30;99.90;;;17.20;100.00;97088.44;5010507;28;20037;-37
2023/09/17 04:05:11;;;;;;;5.20;4.57;;;17.30;99.90;;;17.22;100.00;97088.34;5015850;28;20044;-37
2023/09/17 04:07:38;;;;;;;4.72;3.90;;;17.30;99.90;;;17.21;100.00;97084.81;5013728;28;20511;-37
2023/09/17 04:10:06;;;;;;;4.40;3.78;;;17.30;99.90;;;17.20;100.00;97093.75;5012980;28;20116;-37
2023/09/17 04:12:35;;;;;;;7.15;4.55;;;17.30;99.90;;;17.20;100.00;97088.44;5013067;28;20368;-37
2023/09/17 04:15:13;;;;;;;5.07;4.47;;;17.30;99.90;;;17.20;100.00;97085.75;5009945;28;20034;-37
2023/09/17 04:17:39;;;;;;;5.75;4.43;;;17.30;99.90;;;17.19;100.00;97081.38;5009858;28;20044;-37
2023/09/17 04:20:12;;;;;;;5.40;4.40;;;17.30;99.90;;;17.14;100.00;97072.88;5012229;28;20689;-37
2023/09/17 04:22:39;;;;;;;4.15;3.72;;;17.20;99.90;;;17.15;100.00;97082.56;5010373;28;20033;-37
2023/09/17 04:25:04;;;;;;;5.53;4.53;;;17.20;99.90;;;17.15;100.00;97082.56;5012689;28;20075;-37
2023/09/17 04:27:31;;;;;;;4.93;4.18;;;17.20;99.90;;;17.14;100.00;97089.72;5014059;28;20041;-37
2023/09/17 04:29:56;;;;;;;6.22;4.70;;;17.20;99.90;;;17.13;100.00;97087.16;5011030;28;20125;-37
2023/09/17 04:32:22;;;;;;;5.63;4.28;;;17.20;99.90;;;17.12;100.00;97090.75;5010125;28;20030;-37
2023/09/17 04:34:48;;;;;;;5.80;4.50;;;17.20;99.90;;;17.10;100.00;97082.91;5007417;28;20029;-38
2023/09/17 04:37:19;;;;;;;7.82;4.93;;;17.20;99.90;;;17.08;100.00;97097.25;5012358;28;20030;-37
2023/09/17 04:39:46;;;;;;;6.75;4.80;;;17.20;99.90;;;17.08;100.00;97090.13;5007345;28;21809;-37
2023/09/17 04:42:12;;;;;;;12.27;5.15;;;17.20;99.90;;;17.07;100.00;97090.25;5014466;28;20456;-37
2023/09/17 04:44:38;;;;;;;6.68;4.80;;;17.20;99.90;;;17.07;100.00;97098.25;5008585;28;20033;-37
2023/09/17 04:47:04;;;;;;;4.95;4.13;;;17.20;99.90;;;17.04;100.00;97098.44;5008993;28;20041;-37
2023/09/17 04:49:31;;;;;;;5.70;5.05;;;17.20;99.90;;;17.06;100.00;97104.50;5011427;28;20448;-38
2023/09/17 04:51:57;;;;;;;9.00;4.90;;;17.10;99.90;;;17.04;100.00;97099.28;5008427;28;20107;-37
2023/09/17 04:54:23;;;;;;;5.85;4.95;;;17.10;99.90;;;17.05;100.00;97101.00;5012263;28;20494;-37
2023/09/17 04:56:49;;;;;;;6.57;5.00;;;17.10;99.90;;;17.03;100.00;97105.59;5013552;28;20037;-38
2023/09/17 04:59:15;;;;;;;9.15;5.05;;;17.10;99.90;;;17.03;100.00;97108.25;5012674;28;20073;-37
2023/09/17 05:01:41;;;;;;;6.13;5.03;;;17.10;99.90;;;17.02;100.00;97111.00;5008895;28;20103;-37
2023/09/17 05:04:07;;;;;;;6.78;4.70;;;17.10;99.90;;;17.02;100.00;97119.00;5010023;28;20038;-37
2023/09/17 05:06:33;;;;;;;7.32;4.80;;;17.10;99.90;;;17.02;100.00;97116.34;5011073;28;20497;-37
2023/09/17 05:08:59;;;;;;;5.55;4.90;;;17.10;99.90;;;17.01;100.00;97119.94;5010478;28;20037;-37
2023/09/17 05:11:24;;;;;;;5.55;4.85;;;17.10;99.90;;;17.02;100.00;97114.53;5009881;28;20038;-37
2023/09/17 05:13:50;;;;;;;5.15;4.63;;;17.10;99.90;;;17.00;100.00;97116.44;5010541;28;20059;-37
2023/09/17 05:16:16;;;;;;;5.72;4.80;;;17.10;99.90;;;17.03;100.00;97118.03;5013234;28;21035;-37
2023/09/17 05:18:43;;;;;;;6.63;4.78;;;17.10;99.90;;;17.03;100.00;97124.22;5013034;28;20094;-37
2023/09/17 05:21:09;;;;;;;5.15;4.57;;;17.10;99.90;;;16.95;100.00;97110.56;5009596;28;20026;-37
2023/09/17 05:23:35;;;;;;;6.53;4.70;;;17.10;99.90;;;17.05;100.00;97129.44;5013379;28;20523;-37
2023/09/17 05:26:01;;;;;;;5.35;4.57;;;17.10;99.90;;;17.05;100.00;97129.44;5013220;28;20033;-37
2023/09/17 05:28:27;;;;;;;5.88;4.90;;;17.10;99.90;;;17.09;100.00;97131.78;5003213;28;20116;-37
2023/09/17 05:30:56;;;;;;;6.45;4.88;;;17.20;99.90;;;17.03;100.00;97118.03;5003590;28;20436;-37
2023/09/17 05:33:22;;;;;;;6.57;4.97;;;17.20;99.90;;;17.12;100.00;97130.72;5006423;28;20029;-37
2023/09/17 05:35:48;;;;;;;6.03;4.80;;;17.30;99.90;;;17.25;100.00;97146.75;5013001;28;20373;-37
2023/09/17 05:38:16;;;;;;;5.18;4.68;;;17.30;99.90;;;17.34;100.00;97148.78;5007187;28;20045;-37
2023/09/17 05:40:42;;;;;;;7.22;5.40;;;17.40;99.90;;;17.33;100.00;97147.91;5010774;28;20057;-37
2023/09/17 05:43:07;;;;;;;5.50;4.72;;;17.40;99.90;;;17.45;100.00;97150.72;5011563;28;20539;-37
2023/09/17 05:45:33;;;;;;;5.53;4.90;;;17.50;99.90;;;17.49;100.00;97146.88;5010973;28;20037;-37
2023/09/17 05:47:59;;;;;;;5.78;5.10;;;17.50;99.90;;;17.51;100.00;97150.28;5013635;28;20433;-37
2023/09/17 05:50:24;;;;;;;5.78;4.88;;;17.60;99.90;;;17.55;100.00;97154.47;5014075;28;20041;-37
2023/09/17 05:52:50;;;;;;;5.38;4.82;;;17.60;99.90;;;17.59;100.00;97155.94;5009965;28;20319;-37
2023/09/17 05:55:16;;;;;;;5.25;4.70;;;17.60;99.90;;;17.57;100.00;97149.88;5009198;28;20033;-37
2023/09/17 05:57:42;;;;;;;7.25;4.72;;;17.70;99.90;;;17.66;100.00;97159.06;5009571;28;20079;-37
2023/09/17 06:00:09;;;;;;;7.32;5.07;;;17.70;99.90;;;17.70;100.00;97156.06;5010709;28;20033;-37
2023/09/17 06:02:35;;;;;;;5.93;4.95;;;17.80;99.90;;;17.80;100.00;97160.75;5012389;28;20128;-37
2023/09/17 06:05:00;;;;;;;4.65;4.25;;;17.90;99.90;;;17.88;100.00;97159.28;5010648;28;20033;-37
2023/09/17 06:07:26;;;;;;;6.68;5.15;;;18.00;99.90;;;17.99;100.00;97155.84;5008313;28;20512;-37
2023/09/17 06:09:52;;;;;;;5.40;4.68;;;18.10;99.90;;;18.12;100.00;97156.69;5009186;28;20128;-37
2023/09/17 06:12:18;;;;;;;4.68;4.22;;;18.20;99.90;;;18.24;100.00;97154.94;5010899;28;20080;-37
2023/09/17 06:14:43;;;;;;;5.65;4.45;;;18.30;99.90;;;18.40;100.00;97159.19;5012651;28;20037;-37
2023/09/17 06:17:09;;;;;;;4.97;4.47;;;18.50;99.90;;;18.53;100.00;97160.00;5011172;28;20033;-37
2023/09/17 06:19:37;;;;;;;7.00;4.45;;;18.60;99.90;;;18.62;100.00;97164.66;5005301;28;20293;-37
2023/09/17 06:22:03;;;;;;;4.78;4.28;;;18.70;99.90;;;18.67;100.00;97167.84;5017136;28;20087;-37
2023/09/17 06:24:29;;;;;;;5.93;4.68;;;18.80;99.90;;;18.70;100.00;97161.44;5014153;28;20349;-37
2023/09/17 06:26:55;;;;;;;5.15;4.15;;;18.80;99.90;;;18.72;100.00;97154.16;5012110;28;20367;-39
2023/09/17 06:29:21;;;;;;;5.38;4.32;;;18.80;99.90;;;18.75;100.00;97159.25;5009896;28;20034;-37
2023/09/17 06:31:48;;;;;;;5.57;4.82;;;18.80;99.90;;;18.81;100.00;97157.97;5011217;28;20033;-37
2023/09/17 06:34:13;;;;;;;6.43;4.30;;;18.90;99.90;;;18.89;100.00;97160.94;5015419;28;20026;-37
2023/09/17 06:36:39;;;;;;;6.28;4.28;;;19.00;99.90;;;18.98;100.00;97162.09;5018567;28;20025;-38
2023/09/17 06:39:06;;;;;;;7.18;4.53;;;19.00;99.90;;;19.06;100.00;97157.88;5017757;28;20257;-38
2023/09/17 06:41:32;;;;;;;5.43;4.18;;;19.10;99.90;;;19.12;100.00;97161.06;5016907;28;20198;-37
2023/09/17 06:43:58;;;;;;;5.80;4.18;;;19.20;99.90;;;19.22;100.00;97165.59;5013902;28;20033;-38
2023/09/17 06:46:25;;;;;;;4.90;4.40;;;19.30;99.90;;;19.26;100.00;97150.19;5017334;28;20025;-37
2023/09/17 06:48:52;;;;;;;5.13;4.50;;;19.40;99.90;;;19.46;100.00;97159.34;5012093;28;20046;-38
2023/09/17 06:51:18;;;;;;;8.93;4.95;;;19.50;99.90;;;19.50;100.00;97160.78;5018562;28;20060;-38
2023/09/17 06:53:44;;;;;;;6.30;5.00;;;19.60;99.90;;;19.54;100.00;97156.94;5016426;28;20159;-40
2023/09/17 06:56:13;;;;;;;7.15;5.18;;;19.70;99.90;;;19.59;100.00;97162.75;5017886;28;20112;-42
2023/09/17 06:58:38;;;;;;;7.00;4.90;;;19.70;99.90;;;19.59;100.00;97162.75;5015905;28;20163;-39
2023/09/17 07:01:05;;;;;;;6.57;4.93;;;19.70;99.90;;;19.64;100.00;97168.59;5012625;28;20039;-39
2023/09/17 07:03:32;;;;;;;6.13;5.28;;;19.70;99.90;;;19.70;100.00;97172.63;5011960;28;20032;-39
2023/09/17 07:05:58;;;;;;;5.35;4.30;;;19.80;99.90;;;19.77;100.00;97168.53;5015150;28;20492;-39
2023/09/17 07:08:24;;;;;;;4.97;4.40;;;19.90;99.90;;;19.86;100.00;97172.31;5015391;28;20381;-38
2023/09/17 07:10:51;;;;;;;7.45;4.97;;;19.90;99.90;;;19.99;100.00;97164.19;5018317;28;20033;-39
2023/09/17 07:13:16;;;;;;;8.00;5.05;;;20.10;99.90;;;20.07;100.00;97169.78;5012823;28;20761;-39
2023/09/17 07:15:44;;;;;;;7.18;4.55;;;20.20;99.90;;;20.18;100.00;97156.38;5016330;28;20132;-38
2023/09/17 07:18:10;;;;;;;6.55;4.72;;;20.30;99.90;;;20.31;100.00;97153.56;5018258;28;20389;-39
2023/09/17 07:20:36;;;;;;;5.20;4.70;;;20.40;99.90;;;20.41;100.00;97159.06;5015426;28;20030;-39
2023/09/17 07:23:03;;;;;;;5.07;4.50;;;20.50;99.90;;;20.51;100.00;97161.84;5013933;28;20025;-38
2023/09/17 07:25:29;;;;;;;5.03;4.53;;;20.60;99.90;;;20.55;100.00;97161.47;5014785;28;20040;-38
2023/09/17 07:27:54;;;;;;;6.45;4.55;;;20.60;99.90;;;20.62;100.00;97161.88;5016785;28;20037;-38
2023/09/17 07:30:20;;;;;;;4.78;4.00;;;20.70;99.90;;;20.71;100.00;97165.59;5012245;28;20500;-39
2023/09/17 07:32:46;;;;;;;6.25;4.50;;;20.80;99.90;;;20.72;100.00;97172.66;5015967;28;20707;-38
2023/09/17 07:35:11;;;;;;;4.88;4.00;;;20.80;99.90;;;20.80;100.00;97175.59;5011033;28;20057;-39
2023/09/17 07:37:37;;;;;;;4.65;4.00;;;20.80;99.90;;;20.90;100.00;97181.03;5004378;28;20420;-39
2023/09/17 07:40:05;;;;;;;5.38;4.28;;;20.90;99.90;;;20.91;100.00;97169.34;5006998;28;20025;-38
2023/09/17 07:42:31;;;;;;;5.22;4.07;;;21.10;99.90;;;21.10;100.00;97174.00;5008158;28;21559;-39
2023/09/17 07:44:57;;;;;;;5.30;4.43;;;21.10;99.90;;;21.20;100.00;97182.16;5015787;28;20540;-38
2023/09/17 07:47:23;;;;;;;4.85;4.05;;;21.20;99.90;;;21.24;100.00;97181.75;5008875;28;20060;-38
2023/09/17 07:49:49;;;;;;;4.30;3.80;;;21.30;99.90;;;21.41;100.00;97188.38;5016576;28;20041;-38
2023/09/17 07:52:15;;;;;;;4.40;3.78;;;21.40;99.90;;;21.57;100.00;97197.84;5011648;28;21028;-40
2023/09/17 07:54:42;;;;;;;6.78;4.68;;;21.60;99.90;;;21.73;100.00;97198.22;5009229;28;20064;-40
2023/09/17 07:57:11;;;;;;;5.57;4.32;;;21.80;99.90;;;21.89;100.00;97205.81;5006448;28;20041;-39
2023/09/17 07:59:36;;;;;;;4.57;3.88;;;21.90;99.90;;;22.03;100.00;97200.09;5007639;28;20048;-39
2023/09/17 08:02:03;;;;;;;5.57;4.10;;;22.00;99.90;;;22.05;100.00;97187.38;4994432;28;20599;-40
2023/09/17 08:04:29;;;;;;;4.82;4.00;;;22.10;99.90;;;22.22;100.00;97204.72;4996800;28;20025;-40
2023/09/17 08:06:56;;;;;;;5.47;3.65;;;22.20;99.90;;;22.33;100.00;97198.44;5007259;28;20116;-40
2023/09/17 08:09:23;;;;;;;7.50;3.38;;;22.30;99.90;;;22.47;100.00;97208.00;5010696;28;20035;-39
2023/09/17 08:11:49;;;;;;;5.47;3.80;;;22.50;99.90;;;22.59;100.00;97208.72;5007985;28;20033;-40
2023/09/17 08:14:15;;;;;;;8.48;6.72;;;22.60;99.90;;;22.65;100.00;97206.34;5002998;28;20083;-39
2023/09/17 08:16:41;;;;;;;5.75;4.82;;;22.70;99.90;;;22.82;100.00;97203.97;5008723;28;20021;-39
2023/09/17 08:19:07;;;;;;;6.55;3.63;;;22.80;99.90;;;22.92;100.00;97198.63;5014328;28;20501;-38
2023/09/17 08:21:33;;;;;;;4.70;3.60;;;22.90;99.90;;;23.08;100.00;97211.53;5013436;28;20326;-38
2023/09/17 08:24:00;;;;;;;4.53;3.25;;;23.00;99.90;;;23.16;100.00;97220.63;5010757;28;20481;-38
2023/09/17 08:26:29;;;;;;;5.03;3.30;;;23.10;99.90;;;23.09;98.00;97211.41;5013317;28;20030;-40
2023/09/17 08:29:00;;;;;;;5.72;3.20;;;23.10;99.90;;;23.03;97.33;97220.84;5008782;28;20100;-41
2023/09/17 08:31:28;;;;;;;6.03;3.20;;;23.00;99.90;;;23.03;98.76;97220.84;5016456;28;20123;-39
2023/09/17 08:33:53;;;;;;;4.47;3.22;;;22.90;99.90;;;23.14;100.00;97222.59;5013476;28;20245;-39
2023/09/17 08:36:23;;;;;;;5.35;3.47;;;23.00;99.90;;;23.16;98.92;97209.84;5003160;28;20048;-38
2023/09/17 08:38:50;;;;;;;3.53;3.10;;;23.10;99.90;;;23.26;100.00;97226.03;5013187;28;20030;-41
2023/09/17 08:41:24;;;;;;;3.53;2.92;;;23.10;99.90;;;23.24;99.44;97215.41;5008509;28;20448;-39
2023/09/17 08:43:53;;;;;;;5.65;3.15;;;23.10;99.90;;;23.19;98.35;97217.66;5012808;28;20642;-39
2023/09/17 08:46:22;;;;;;;5.05;3.40;;;23.10;99.90;;;23.08;98.12;97223.19;5011569;28;20037;-39
2023/09/17 08:48:49;;;;;;;5.68;2.72;;;23.00;99.90;;;22.98;94.42;97222.25;5007752;28;20033;-38
2023/09/17 08:51:18;;;;;;;2.97;2.60;;;22.90;99.90;;;23.04;95.81;97219.00;5002993;28;20038;-42
2023/09/17 08:54:22;;;;;;;2.88;2.45;;;22.90;99.90;;;23.20;93.03;97215.81;5008340;28;20033;-39
2023/09/17 08:56:49;;;;;;;5.57;2.95;;;23.10;99.90;;;23.40;92.52;97214.84;5012383;28;20436;-38
2023/09/17 08:59:27;;;;;;;3.75;2.58;;;23.30;99.90;;;23.61;91.01;97220.06;5010625;28;20026;-38
2023/09/17 09:01:53;;;;;;;7.50;2.88;;;23.40;99.90;;;23.79;84.63;97219.34;5005768;28;20093;-41
2023/09/17 09:04:22;;;;;;;4.55;2.42;;;23.60;99.90;;;24.01;84.25;97215.50;5008684;28;20033;-37
2023/09/17 09:06:48;;;;;;;3.78;2.55;;;23.90;99.90;;;24.22;81.20;97211.75;5009903;28;20171;-39
2023/09/17 09:09:16;;;;;;;7.38;2.90;;;24.10;99.90;;;24.31;75.96;97210.88;5009599;28;20022;-37
2023/09/17 09:11:42;;;;;;;3.88;2.58;;;24.20;99.90;;;24.43;72.07;97220.47;5005265;28;20041;-37
2023/09/17 09:14:08;;;;;;;5.65;2.75;;;24.30;99.90;;;24.49;71.26;97206.41;4995955;28;20046;-38
2023/09/17 09:16:37;;;;;;;6.13;3.00;;;24.40;99.90;;;24.66;74.41;97203.97;5009057;28;20060;-37
2023/09/17 09:19:04;;;;;;;3.63;2.85;;;24.50;99.90;;;24.77;74.45;97204.59;5005318;28;20037;-38
2023/09/17 09:21:30;;;;;;;9.48;3.10;;;24.60;99.90;;;24.78;67.66;97205.44;5003576;28;20116;-38
2023/09/17 09:23:57;;;;;;;7.28;3.00;;;24.70;99.90;;;24.84;73.00;97212.94;5011178;28;20100;-37
2023/09/17 09:26:33;;;;;;;6.25;2.53;;;24.70;99.90;;;24.83;66.97;97211.22;5008717;28;20152;-38
2023/09/17 09:28:59;;;;;;;5.53;2.45;;;24.70;99.90;;;24.88;68.15;97200.84;5009438;28;20120;-39
2023/09/17 09:31:26;;;;;;;8.05;2.70;;;24.80;99.90;;;25.04;65.89;97212.81;5008799;28;20052;-37
2023/09/17 09:33:52;;;;;;;3.72;2.40;;;24.90;99.90;;;25.17;64.86;97207.03;5003563;28;20036;-39
2023/09/17 09:36:20;;;;;;;4.60;2.40;;;25.00;99.90;;;25.27;65.01;97208.72;5005248;28;20069;-37
2023/09/17 09:38:45;;;;;;;4.47;2.40;;;25.10;99.90;;;25.40;72.20;97199.38;5006057;28;20175;-37
2023/09/17 09:41:11;;;;;;;4.72;2.50;;;25.30;99.90;;;25.50;68.64;97194.72;5007427;28;20029;-41
2023/09/17 09:43:37;;;;;;;3.55;2.28;;;25.30;99.90;;;25.58;64.65;97196.66;5004574;28;20420;-38
2023/09/17 09:46:04;;;;;;;4.85;2.55;;;25.40;99.90;;;25.69;64.94;97197.25;5005376;28;20045;-38
2023/09/17 09:48:31;;;;;;;5.10;2.40;;;25.50;99.90;;;25.73;62.33;97189.69;5007431;28;20706;-36
2023/09/17 09:50:58;;;;;;;4.45;2.28;;;25.60;99.90;;;25.83;61.36;97193.16;4998211;28;20048;-37
2023/09/17 09:53:24;;;;;;;5.05;2.30;;;25.70;99.90;;;25.94;59.56;97192.06;5007103;28;20037;-37
2023/09/17 09:55:50;;;;;;;3.35;2.33;;;25.80;99.90;;;25.97;58.51;97191.75;5006615;28;20117;-37
2023/09/17 09:58:17;;;;;;;5.32;2.45;;;25.90;99.90;;;26.04;57.05;97187.41;5010785;28;20499;-37
2023/09/17 10:00:45;;;;;;;7.80;2.40;;;25.90;99.90;;;26.07;56.61;97186.25;4999092;28;20687;-37
2023/09/17 10:03:12;;;;;;;5.50;2.33;;;25.90;99.90;;;25.96;56.15;97181.94;5008183;28;20123;-37
2023/09/17 10:05:40;;;;;;;3.90;2.17;;;25.90;99.90;;;26.02;57.27;97175.94;5003166;28;20027;-36
2023/09/17 10:08:12;;;;;;;5.43;2.65;;;25.90;99.90;;;26.05;62.74;97159.38;5000495;28;20040;-37
2023/09/17 10:10:39;;;;;;;6.00;2.40;;;25.90;99.90;;;26.19;57.35;97166.03;5008824;28;20057;-37
2023/09/17 10:13:10;;;;;;;7.30;2.17;;;26.00;99.90;;;26.29;55.57;97166.78;5011441;28;20124;-37